createdAt,value
2023-03-22T00:01:10.841Z,24.53
2023-03-22T00:04:15.497Z,25.27
2023-03-22T00:07:19.078Z,24.23
2023-03-22T00:10:25.531Z,24.93
2023-03-22T00:13:28.772Z,23.50
2023-03-22T00:16:32.669Z,24.43
2023-03-22T00:19:37.514Z,25.93
2023-03-22T00:22:40.712Z,25.07
2023-03-22T00:25:44.909Z,24.83
2023-03-22T00:28:50.709Z,26.37
2023-03-22T00:31:56.036Z,24.30
2023-03-22T00:35:01.937Z,25.57
2023-03-22T00:38:14.333Z,23.87
2023-03-22T00:41:20.817Z,23.73
2023-03-22T00:44:24.343Z,24.47
2023-03-22T00:47:27.342Z,23.97
2023-03-22T00:50:31.852Z,23.70
2023-03-22T00:53:36.447Z,25.97
2023-03-22T00:56:39.583Z,24.53
2023-03-22T00:59:48.366Z,24.83
2023-03-22T01:02:53.586Z,24.50
2023-03-22T01:05:59.327Z,21.07
2023-03-22T01:09:04.234Z,23.87
2023-03-22T01:12:07.801Z,23.53
2023-03-22T01:15:12.131Z,22.83
2023-03-22T01:18:17.995Z,24.10
2023-03-22T01:21:22.276Z,23.10
2023-03-22T01:24:26.913Z,22.97
2023-03-22T01:27:30.363Z,22.13
2023-03-22T01:30:33.752Z,22.63
2023-03-22T01:33:36.772Z,22.67
2023-03-22T01:36:41.187Z,21.03
2023-03-22T01:39:45.960Z,23.53
2023-03-22T01:42:53.782Z,26.33
2023-03-22T01:46:00.934Z,24.30
2023-03-22T01:49:09.677Z,23.80
2023-03-22T01:52:16.440Z,24.60
2023-03-22T01:55:28.178Z,25.20
2023-03-22T01:58:48.021Z,24.30
2023-03-22T02:01:55.222Z,25.07
2023-03-22T02:04:59.067Z,24.73
2023-03-22T02:08:08.954Z,25.47
2023-03-22T02:11:33.467Z,24.57
2023-03-22T02:15:03.599Z,24.77
2023-03-22T02:18:57.411Z,24.00
2023-03-22T02:22:38.789Z,27.53
2023-03-22T02:26:23.040Z,27.67
2023-03-22T02:29:41.466Z,22.93
2023-03-22T02:33:09.630Z,24.50
2023-03-22T02:36:33.209Z,23.73
2023-03-22T02:39:44.172Z,25.07
2023-03-22T02:42:59.980Z,23.87
2023-03-22T02:46:09.191Z,23.60
2023-03-22T02:49:19.932Z,22.23
2023-03-22T02:52:32.110Z,24.50
2023-03-22T02:55:41.808Z,23.23
2023-03-22T02:58:48.346Z,24.30
2023-03-22T03:01:55.723Z,23.43
2023-03-22T03:05:00.159Z,24.53
2023-03-22T03:08:05.141Z,23.20
2023-03-22T03:11:11.009Z,23.60
2023-03-22T03:14:26.394Z,25.80
2023-03-22T03:17:43.195Z,25.17
2023-03-22T03:21:00.298Z,22.77
2023-03-22T03:24:22.112Z,23.23
2023-03-22T03:27:36.480Z,23.17
2023-03-22T03:30:49.324Z,24.37
2023-03-22T03:33:59.622Z,23.47
2023-03-22T03:37:08.198Z,20.57
2023-03-22T03:40:14.634Z,26.07
2023-03-22T03:43:20.244Z,22.13
2023-03-22T03:46:24.383Z,23.73
2023-03-22T03:49:27.970Z,23.93
2023-03-22T03:52:31.774Z,23.97
2023-03-22T03:55:38.152Z,23.97
2023-03-22T03:58:42.532Z,21.77
2023-03-22T04:01:50.315Z,22.67
2023-03-22T04:04:56.988Z,19.53
2023-03-22T04:08:00.411Z,21.27
2023-03-22T04:11:03.530Z,22.70
2023-03-22T04:14:09.565Z,22.07
2023-03-22T04:17:14.105Z,22.33
2023-03-22T04:20:18.059Z,21.80
2023-03-22T04:23:23.180Z,21.23
2023-03-22T04:26:27.223Z,22.23
2023-03-22T04:29:48.183Z,22.00
2023-03-22T04:33:07.847Z,20.57
2023-03-22T04:36:40.255Z,22.57
2023-03-22T04:39:55.600Z,20.50
2023-03-22T04:43:27.797Z,21.27
2023-03-22T04:46:38.736Z,24.23
2023-03-22T04:49:43.401Z,20.97
2023-03-22T04:52:47.951Z,25.23
2023-03-22T04:55:51.336Z,25.33
2023-03-22T04:58:54.847Z,25.83
2023-03-22T05:01:59.377Z,26.97
2023-03-22T05:05:07.011Z,30.13
2023-03-22T05:08:14.303Z,25.50
2023-03-22T05:11:20.314Z,24.87
2023-03-22T05:14:37.411Z,27.13
2023-03-22T05:17:43.143Z,25.80
2023-03-22T05:20:49.301Z,26.70
2023-03-22T05:23:58.796Z,27.97
2023-03-22T05:27:03.745Z,24.73
2023-03-22T05:30:09.896Z,23.90
2023-03-22T05:33:24.274Z,22.77
2023-03-22T05:36:31.438Z,25.50
2023-03-22T05:39:50.867Z,26.23
2023-03-22T05:42:56.244Z,22.53
2023-03-22T05:46:15.145Z,24.50
2023-03-22T05:49:54.892Z,24.93
2023-03-22T05:53:00.601Z,23.60
2023-03-22T05:56:26.945Z,24.10
2023-03-22T05:59:38.207Z,24.87
2023-03-22T06:02:59.156Z,25.00
2023-03-22T06:06:12.413Z,23.80
2023-03-22T06:11:46.571Z,24.23
2023-03-22T06:14:37.601Z,24.63
2023-03-22T06:18:11.294Z,25.53
2023-03-22T06:21:19.584Z,25.13
2023-03-22T06:24:23.491Z,26.23
2023-03-22T06:27:26.986Z,25.00
2023-03-22T06:30:30.825Z,22.97
2023-03-22T06:33:57.424Z,24.63
2023-03-22T06:37:10.742Z,24.20
2023-03-22T06:40:16.842Z,24.77
2023-03-22T06:43:20.706Z,25.30
2023-03-22T06:46:28.978Z,24.57
2023-03-22T06:49:41.948Z,25.57
2023-03-22T06:52:51.420Z,24.30
2023-03-22T06:55:55.438Z,25.03
2023-03-22T06:59:01.041Z,24.43
2023-03-22T07:02:04.485Z,24.67
2023-03-22T07:05:11.187Z,24.47
2023-03-22T07:08:16.099Z,25.03
2023-03-22T07:11:25.922Z,23.83
2023-03-22T07:14:35.183Z,23.47
2023-03-22T07:17:48.161Z,22.43
2023-03-22T07:20:51.593Z,23.30
2023-03-22T07:23:56.114Z,22.40
2023-03-22T07:27:02.150Z,23.00
2023-03-22T07:30:09.637Z,21.73
2023-03-22T07:33:16.575Z,21.53
2023-03-22T07:36:25.587Z,21.40
2023-03-22T07:39:31.913Z,21.33
2023-03-22T07:42:35.360Z,19.73
2023-03-22T07:45:57.699Z,22.67
2023-03-22T07:49:19.800Z,19.10
2023-03-22T07:52:28.826Z,19.33
2023-03-22T07:55:33.152Z,19.17
2023-03-22T07:58:36.497Z,18.87
2023-03-22T08:01:39.493Z,19.13
2023-03-22T08:04:56.089Z,18.20
2023-03-22T08:08:13.511Z,18.83
2023-03-22T08:11:17.935Z,17.70
2023-03-22T08:14:27.486Z,17.10
2023-03-22T08:17:39.574Z,18.10
2023-03-22T08:20:47.864Z,18.10
2023-03-22T08:23:56.183Z,17.93
2023-03-22T08:27:09.601Z,17.37
2023-03-22T08:30:21.973Z,17.80
2023-03-22T08:33:25.340Z,16.20
2023-03-22T08:36:29.045Z,16.23
2023-03-22T08:39:36.586Z,17.57
2023-03-22T08:42:58.864Z,15.80
2023-03-22T08:46:04.892Z,16.77
2023-03-22T08:49:10.381Z,15.73
2023-03-22T08:52:22.730Z,15.80
2023-03-22T08:55:35.298Z,15.50
2023-03-22T08:58:48.594Z,16.20
2023-03-22T09:02:02.935Z,14.07
2023-03-22T09:05:06.795Z,14.13
2023-03-22T09:08:18.267Z,14.63
2023-03-22T09:11:24.899Z,15.43
2023-03-22T09:14:29.361Z,15.23
2023-03-22T09:17:33.055Z,15.03
2023-03-22T09:20:36.294Z,14.30
2023-03-22T09:23:42.389Z,14.03
2023-03-22T09:26:47.938Z,13.47
2023-03-22T09:29:54.769Z,13.03
2023-03-22T09:32:57.986Z,12.07
2023-03-22T09:36:01.927Z,12.73
2023-03-22T09:39:07.456Z,13.60
2023-03-22T09:42:30.326Z,12.97
2023-03-22T09:45:42.474Z,11.03
2023-03-22T09:48:49.458Z,12.40
2023-03-22T09:51:54.825Z,11.97
2023-03-22T09:54:59.350Z,11.15
2023-03-22T09:58:21.534Z,10.82
2023-03-22T10:01:37.478Z,11.07
2023-03-22T10:04:52.566Z,10.83
2023-03-22T10:08:14.217Z,11.30
2023-03-22T10:11:27.185Z,12.23
2023-03-22T10:14:35.308Z,10.45
2023-03-22T10:17:40.965Z,10.75
2023-03-22T10:20:50.741Z,10.07
2023-03-22T10:23:58.196Z,10.10
2023-03-22T10:27:02.038Z,9.73
2023-03-22T10:30:11.080Z,10.02
2023-03-22T10:33:24.721Z,9.77
2023-03-22T10:36:35.291Z,10.48
2023-03-22T10:39:42.031Z,9.50
2023-03-22T10:42:52.394Z,9.80
2023-03-22T10:45:56.660Z,9.60
2023-03-22T10:49:03.200Z,9.20
2023-03-22T10:52:37.563Z,8.73
2023-03-22T10:55:45.283Z,8.80
2023-03-22T10:58:50.135Z,9.30
2023-03-22T11:01:53.737Z,9.60
2023-03-22T11:05:00.912Z,9.27
2023-03-22T11:08:04.470Z,8.73
2023-03-22T11:11:08.485Z,8.10
2023-03-22T11:14:15.916Z,8.00
2023-03-22T11:17:26.922Z,7.72
2023-03-22T11:20:32.904Z,7.75
2023-03-22T11:23:38.916Z,7.95
2023-03-22T11:26:44.927Z,7.88
2023-03-22T11:29:53.100Z,8.02
2023-03-22T11:33:10.704Z,8.27
2023-03-22T11:36:19.828Z,7.22
2023-03-22T11:39:23.158Z,7.15
2023-03-22T11:42:27.526Z,7.47
2023-03-22T11:45:34.186Z,7.43
2023-03-22T11:48:37.971Z,7.25
2023-03-22T11:51:43.307Z,8.00
2023-03-22T11:54:47.744Z,7.15
2023-03-22T11:57:51.895Z,7.10
2023-03-22T12:00:58.118Z,5.97
2023-03-22T12:04:05.602Z,7.13
2023-03-22T12:07:17.853Z,6.32
2023-03-22T12:10:27.334Z,6.28
2023-03-22T12:13:39.258Z,6.38
2023-03-22T12:16:52.604Z,6.00
2023-03-22T12:20:07.379Z,6.03
2023-03-22T12:23:16.552Z,5.80
2023-03-22T12:26:22.676Z,5.43
2023-03-22T12:29:27.982Z,6.22
2023-03-22T12:32:36.489Z,5.93
2023-03-22T12:35:46.221Z,5.50
2023-03-22T12:38:55.940Z,5.47
2023-03-22T12:42:04.311Z,5.72
2023-03-22T12:45:15.682Z,5.68
2023-03-22T12:48:22.811Z,5.10
2023-03-22T12:51:26.372Z,6.10
2023-03-22T12:54:30.955Z,5.15
2023-03-22T12:57:36.302Z,5.60
2023-03-22T13:00:47.666Z,5.40
2023-03-22T13:03:54.805Z,5.28
2023-03-22T13:07:09.438Z,4.63
2023-03-22T13:10:49.910Z,5.10
2023-03-22T13:13:57.889Z,4.28
2023-03-22T13:17:01.702Z,3.75
2023-03-22T13:20:27.107Z,3.67
2023-03-22T13:23:30.141Z,4.00
2023-03-22T13:26:39.835Z,4.00
2023-03-22T13:29:43.386Z,3.92
2023-03-22T13:32:54.609Z,3.53
2023-03-22T13:36:02.166Z,4.10
2023-03-22T13:39:12.351Z,3.47
2023-03-22T13:42:22.715Z,3.28
2023-03-22T13:45:34.765Z,3.65
2023-03-22T13:48:55.310Z,4.05
2023-03-22T13:52:01.908Z,3.17
2023-03-22T13:55:17.433Z,3.80
2023-03-22T13:58:50.140Z,3.33
2023-03-22T14:01:57.677Z,3.15
2023-03-22T14:05:09.322Z,3.80
2023-03-22T14:08:24.923Z,3.55
2023-03-22T14:11:31.191Z,4.35
2023-03-22T14:14:43.680Z,3.78
2023-03-22T14:17:50.756Z,3.88
2023-03-22T14:20:59.047Z,3.80
